Terminal Aerodrome Forecast
Issued by NWS Pendleton, OR

Home | Current Version | Previous Version | Text Only | Print | Product List | Glossary On
Versions: 1 2 3 4 5 6 7 8 9 10 11 12 13 14 15 16 17
000
FTUS46 KPDT 260534
TAFPDT
TAF
KPDT 260534Z 2606/2706 VRB06KT P6SM SCT070 BKN100
     FM261000 15007KT P6SM BKN100
     FM261500 VRB06KT P6SM SCT250
     FM262000 28008KT P6SM SCT070 SCT250
     FM270400 15007KT P6SM SCT100 BKN250=

USA.gov is the U.S. government's official web portal to all federal, state and local government web resources and services.